Time;durP1;ratioP1;P1;durP2;ratioP2;P2;SDS_P1;SDS_P2;PMS_P1;PMS_P2;Temp;Humidity;BMP_temperature;BMP_pressure;BME280_temperature;BME280_humidity;BME280_pressure;Samples;Min_cycle;Max_cycle;Signal;HPM_P1;HPM_P2
2022/04/21 00:02:12;;;;;;;;;;;;;;;8.47;61.17;101220.47;5041374;28;19917;-73
2022/04/21 00:04:40;;;;;;;;;;;;;;;8.46;61.15;101229.25;5040620;28;20324;-71
2022/04/21 00:07:05;;;;;;;;;;;;;;;8.42;61.51;101232.91;5038308;28;20379;-72
2022/04/21 00:09:31;;;;;;;;;;;;;;;8.40;61.58;101229.50;5040708;28;19973;-72
2022/04/21 00:11:56;;;;;;;;;;;;;;;8.40;61.95;101237.38;5041127;28;20351;-72
2022/04/21 00:14:21;;;;;;;;;;;;;;;8.42;61.34;101230.28;5039945;28;20361;-73
2022/04/21 00:16:46;;;;;;;;;;;;;;;8.46;61.06;101221.38;5038892;28;20451;-73
2022/04/21 00:19:12;;;;;;;;;;;;;;;8.49;60.98;101218.69;5040953;28;19920;-71
2022/04/21 00:24:21;;;;;;;;;;;;;;;8.56;61.03;101213.16;5039428;28;20421;-71
2022/04/21 00:26:46;;;;;;;;;;;;;;;8.59;61.18;101205.16;5036791;28;19951;-72
2022/04/21 00:29:12;;;;;;;;;;;;;;;8.63;60.87;101210.22;5042111;28;19959;-71
2022/04/21 00:31:37;;;;;;;;;;;;;;;8.68;60.80;101216.13;5040049;28;19995;-71
2022/04/21 00:34:03;;;;;;;;;;;;;;;8.67;60.59;101206.56;5040233;28;19967;-70
2022/04/21 00:36:28;;;;;;;;;;;;;;;8.69;60.72;101186.34;5038410;28;19925;-71
2022/04/21 00:38:53;;;;;;;;;;;;;;;8.69;60.78;101193.38;5021126;28;19947;-75
2022/04/21 00:41:18;;;;;;;;;;;;;;;8.62;60.65;101200.63;5040103;28;20348;-72
2022/04/21 00:43:44;;;;;;;;;;;;;;;8.62;61.17;101203.25;5039447;28;19922;-71
2022/04/21 00:46:16;;;;;;;;;;;;;;;8.61;61.28;101212.06;5037414;28;20026;-72
2022/04/21 00:48:42;;;;;;;;;;;;;;;8.63;61.13;101206.75;5037401;28;19928;-71
2022/04/21 00:51:07;;;;;;;;;;;;;;;8.63;61.10;101201.50;5040072;28;19917;-72
2022/04/21 00:53:32;;;;;;;;;;;;;;;8.61;61.13;101201.59;5037807;28;19924;-73
2022/04/21 00:55:58;;;;;;;;;;;;;;;8.60;61.13;101209.50;5039551;28;19997;-71
2022/04/21 00:58:24;;;;;;;;;;;;;;;8.63;60.94;101199.72;5018591;28;19921;-71
2022/04/21 01:00:49;;;;;;;;;;;;;;;8.65;61.00;101213.63;5039745;28;19943;-71
2022/04/21 01:03:15;;;;;;;;;;;;;;;8.68;61.65;101212.66;5040059;28;20272;-72
2022/04/21 01:05:40;;;;;;;;;;;;;;;8.63;61.52;101214.63;5037092;28;19921;-72
2022/04/21 01:08:06;;;;;;;;;;;;;;;8.60;61.34;101212.13;5018648;28;20274;-71
2022/04/21 01:10:33;;;;;;;;;;;;;;;8.64;61.26;101200.59;5040222;28;19921;-71
2022/04/21 01:12:59;;;;;;;;;;;;;;;8.64;61.43;101200.59;5038843;28;19913;-72
2022/04/21 01:15:24;;;;;;;;;;;;;;;8.65;61.46;101208.38;5039962;28;20295;-72
2022/04/21 01:17:51;;;;;;;;;;;;;;;8.65;61.42;101207.53;5037128;28;20334;-71
2022/04/21 01:20:18;;;;;;;;;;;;;;;8.65;61.24;101207.53;5038701;28;21219;-71
2022/04/21 01:22:43;;;;;;;;;;;;;;;8.68;61.11;101202.19;5038919;28;19989;-72
2022/04/21 01:25:09;;;;;;;;;;;;;;;8.69;61.37;101201.25;5038289;28;20311;-71
2022/04/21 01:27:35;;;;;;;;;;;;;;;8.74;61.29;101201.91;5038128;28;19995;-71
2022/04/21 01:30:02;;;;;;;;;;;;;;;8.74;61.05;101194.03;5041806;28;19959;-72
2022/04/21 01:32:28;;;;;;;;;;;;;;;8.71;61.26;101190.69;5037666;28;19928;-71
2022/04/21 01:34:54;;;;;;;;;;;;;;;8.66;61.31;101188.25;5021961;28;19960;-72
2022/04/21 01:42:47;;;;;;;;;;;;;;;8.64;61.56;101184.84;5037727;28;19943;-71
2022/04/21 01:45:13;;;;;;;;;;;;;;;8.58;61.86;101177.22;5037201;28;19917;-73
2022/04/21 01:47:38;;;;;;;;;;;;;;;8.49;62.40;101176.72;5038132;28;19929;-72
2022/04/21 01:50:07;;;;;;;;;;;;;;;8.48;62.25;101175.00;5038031;28;19959;-70
2022/04/21 01:52:33;;;;;;;;;;;;;;;8.51;62.24;101168.78;5042617;28;20015;-71
2022/04/21 01:54:58;;;;;;;;;;;;;;;8.54;62.05;101174.75;5040115;28;19920;-71
2022/04/21 01:57:23;;;;;;;;;;;;;;;8.58;61.71;101171.97;5041682;28;19921;-70
2022/04/21 01:59:51;;;;;;;;;;;;;;;8.54;61.88;101169.50;5041844;28;19916;-71
2022/04/21 02:02:17;;;;;;;;;;;;;;;8.54;62.56;101174.75;5042295;28;19917;-72
2022/04/21 02:04:42;;;;;;;;;;;;;;;8.53;62.24;101173.06;5039147;28;20341;-73
2022/04/21 02:07:07;;;;;;;;;;;;;;;8.50;62.00;101162.69;5042902;28;19928;-72
2022/04/21 02:09:33;;;;;;;;;;;;;;;8.48;62.21;101163.66;5041113;28;20425;-74
2022/04/21 02:11:58;;;;;;;;;;;;;;;8.44;62.55;101167.31;5029823;28;19917;-73
2022/04/21 02:14:24;;;;;;;;;;;;;;;8.46;62.53;101158.44;5042694;28;19920;-72
2022/04/21 02:16:49;;;;;;;;;;;;;;;8.48;62.45;101154.03;5042064;28;19916;-73
2022/04/21 02:19:14;;;;;;;;;;;;;;;8.52;62.45;101160.84;5039882;28;20707;-73
2022/04/21 02:21:39;;;;;;;;;;;;;;;8.46;62.41;101161.06;5039097;28;19916;-73
2022/04/21 02:24:05;;;;;;;;;;;;;;;8.31;63.88;101156.47;5042975;28;20392;-73
2022/04/21 02:26:31;;;;;;;;;;;;;;;8.24;63.31;101150.63;5039468;28;19921;-73
2022/04/21 02:28:56;;;;;;;;;;;;;;;8.24;63.46;101151.47;5039863;28;20388;-71
2022/04/21 02:31:22;;;;;;;;;;;;;;;8.22;63.84;101161.19;5041453;28;19925;-72
2022/04/21 02:33:47;;;;;;;;;;;;;;;8.22;63.83;101157.69;5042129;28;20346;-71
2022/04/21 02:36:12;;;;;;;;;;;;;;;8.23;63.66;101160.28;5038237;28;19916;-72
2022/04/21 02:38:37;;;;;;;;;;;;;;;8.23;63.76;101156.78;5040746;28;20016;-72
2022/04/21 02:41:04;;;;;;;;;;;;;;;8.24;63.61;101148.84;5042407;28;19928;-71
2022/04/21 02:43:29;;;;;;;;;;;;;;;8.25;63.78;101152.34;5041751;28;19924;-71
2022/04/21 02:45:54;;;;;;;;;;;;;;;8.26;63.91;101168.91;5035671;28;20492;-73
2022/04/21 02:48:20;;;;;;;;;;;;;;;8.26;63.64;101154.03;5038454;28;19935;-71
2022/04/21 02:50:47;;;;;;;;;;;;;;;8.26;63.71;101155.78;5023941;28;24048;-71
2022/04/21 02:53:12;;;;;;;;;;;;;;;8.28;63.54;101157.47;5042400;28;20258;-71
2022/04/21 02:58:23;;;;;;;;;;;;;;;8.31;63.92;101153.84;5043146;28;19974;-73
2022/04/21 03:00:49;;;;;;;;;;;;;;;8.35;63.45;101153.66;5036273;28;19917;-72
2022/04/21 03:03:14;;;;;;;;;;;;;;;8.37;63.70;101161.47;5041191;28;19923;-73
2022/04/21 03:05:39;;;;;;;;;;;;;;;8.39;63.71;101154.41;5037397;28;19990;-72
2022/04/21 03:08:05;;;;;;;;;;;;;;;8.39;64.17;101154.41;5041729;28;19929;-72
2022/04/21 03:10:31;;;;;;;;;;;;;;;8.37;63.97;101151.81;5039275;28;19975;-72
2022/04/21 03:12:58;;;;;;;;;;;;;;;8.35;63.81;101158.06;5025506;28;20055;-73
2022/04/21 03:15:24;;;;;;;;;;;;;;;8.34;64.06;101162.44;5026091;28;19953;-74
2022/04/21 03:17:49;;;;;;;;;;;;;;;8.35;64.07;101161.50;5040920;28;20455;-73
2022/04/21 03:24:19;;;;;;;;;;;;;;;8.37;63.95;101162.31;5043027;28;19917;-71
2022/04/21 03:25:44;;;;;;;;;;;;;;;8.45;63.68;101161.16;5039815;28;20285;-74
2022/04/21 03:28:10;;;;;;;;;;;;;;;8.47;63.92;101170.66;5041533;28;20482;-72
2022/04/21 03:30:35;;;;;;;;;;;;;;;8.45;64.04;101159.34;5035829;28;20269;-71
2022/04/21 03:33:01;;;;;;;;;;;;;;;8.43;63.66;101166.44;5041582;28;19916;-73
2022/04/21 03:35:26;;;;;;;;;;;;;;;8.44;63.74;101159.44;5038071;28;19924;-73
2022/04/21 03:37:52;;;;;;;;;;;;;;;8.46;64.03;101166.31;5038971;28;19920;-74
2022/04/21 03:40:17;;;;;;;;;;;;;;;8.44;64.04;101162.06;5036810;28;19960;-71
2022/04/21 03:42:42;;;;;;;;;;;;;;;8.45;63.96;101153.28;5038798;28;19995;-71
2022/04/21 03:45:08;;;;;;;;;;;;;;;8.49;63.77;101155.72;5038776;28;19974;-72
2022/04/21 03:47:34;;;;;;;;;;;;;;;8.51;63.77;101150.41;5036361;28;19916;-71
2022/04/21 03:49:59;;;;;;;;;;;;;;;8.49;63.80;101150.50;5039936;28;19925;-71
2022/04/21 03:52:24;;;;;;;;;;;;;;;8.49;64.29;101150.50;5040141;28;20730;-73
2022/04/21 03:54:50;;;;;;;;;;;;;;;8.49;63.76;101145.25;5041573;28;19913;-73
2022/04/21 03:57:18;;;;;;;;;;;;;;;8.56;63.92;101158.06;5025913;28;20333;-71
2022/04/21 03:59:43;;;;;;;;;;;;;;;8.58;63.82;101148.38;5037569;28;19925;-72
2022/04/21 04:02:08;;;;;;;;;;;;;;;8.61;63.77;101148.25;5034514;28;20030;-71
2022/04/21 04:04:35;;;;;;;;;;;;;;;8.61;63.86;101154.38;5038116;28;19921;-72
2022/04/21 04:12:33;;;;;;;;;;;;;;;8.55;64.02;101170.34;5042245;28;19970;-72
2022/04/21 04:14:59;;;;;;;;;;;;;;;8.54;63.85;101173.88;5023295;28;19923;-73
2022/04/21 04:17:25;;;;;;;;;;;;;;;8.57;63.65;101173.78;5034760;28;19978;-72
2022/04/21 04:19:50;;;;;;;;;;;;;;;8.61;63.69;101180.59;5041749;28;20281;-73
2022/04/21 04:22:15;;;;;;;;;;;;;;;8.65;63.50;101181.31;5041173;28;19925;-72
2022/04/21 04:24:41;;;;;;;;;;;;;;;8.68;63.49;101165.44;5037309;28;19921;-72
2022/04/21 04:27:06;;;;;;;;;;;;;;;8.67;63.64;101169.00;5039018;28;19925;-71
2022/04/21 04:29:31;;;;;;;;;;;;;;;8.63;63.69;101167.41;5038803;28;19952;-73
2022/04/21 04:31:57;;;;;;;;;;;;;;;8.61;63.78;101169.22;5037218;28;19916;-75
2022/04/21 04:34:23;;;;;;;;;;;;;;;8.56;64.11;101163.31;5037569;28;19999;-73
2022/04/21 04:36:48;;;;;;;;;;;;;;;8.52;64.07;101166.09;5022091;28;20039;-72
2022/04/21 04:39:13;;;;;;;;;;;;;;;8.52;64.30;101165.22;5033877;28;20535;-72
2022/04/21 04:44:23;;;;;;;;;;;;;;;8.56;64.02;101161.56;5037918;28;19955;-72
2022/04/21 04:46:48;;;;;;;;;;;;;;;8.58;63.70;101162.34;5038419;28;19952;-75
2022/04/21 04:49:14;;;;;;;;;;;;;;;8.65;63.98;101165.56;5037196;28;19944;-71
2022/04/21 04:51:41;;;;;;;;;;;;;;;8.64;63.93;101166.50;5040347;28;19917;-72
2022/04/21 04:54:08;;;;;;;;;;;;;;;8.63;63.66;101163.00;5036970;28;20357;-71
2022/04/21 04:56:34;;;;;;;;;;;;;;;8.62;63.85;101169.16;5039922;28;19917;-71
2022/04/21 04:59:00;;;;;;;;;;;;;;;8.64;63.93;101169.94;5038700;28;20469;-71
2022/04/21 05:01:28;;;;;;;;;;;;;;;8.67;63.52;101169.00;5040541;28;19920;-73
2022/04/21 05:03:59;;;;;;;;;;;;;;;8.68;63.60;101175.94;5038898;28;20308;-72
2022/04/21 05:06:24;;;;;;;;;;;;;;;8.67;63.90;101171.59;5038593;28;19916;-73
2022/04/21 05:08:50;;;;;;;;;;;;;;;8.67;63.73;101164.56;5040819;28;19920;-72
2022/04/21 05:11:16;;;;;;;;;;;;;;;8.69;63.69;101175.03;5038652;28;19917;-73
2022/04/21 05:13:42;;;;;;;;;;;;;;;8.67;63.96;101169.00;5036904;28;19920;-73
2022/04/21 05:16:08;;;;;;;;;;;;;;;8.69;63.83;101169.78;5038835;28;19912;-72
2022/04/21 05:18:33;;;;;;;;;;;;;;;8.72;63.98;101180.13;5039692;28;19927;-72
2022/04/21 05:20:59;;;;;;;;;;;;;;;8.73;63.91;101184.44;5039663;28;20070;-72
2022/04/21 05:23:24;;;;;;;;;;;;;;;8.71;63.92;101174.94;5028170;28;19928;-71
2022/04/21 05:25:50;;;;;;;;;;;;;;;8.71;63.91;101181.03;5039314;28;19921;-71
2022/04/21 05:28:15;;;;;;;;;;;;;;;8.75;63.98;101185.25;5040486;28;19961;-72
2022/04/21 05:30:56;;;;;;;;;;;;;;;8.83;64.08;101177.03;5043216;28;19923;-71
2022/04/21 05:33:28;;;;;;;;;;;;;;;8.84;63.82;101176.97;5041687;28;19978;-73
2022/04/21 05:35:54;;;;;;;;;;;;;;;8.82;63.94;101173.56;5026424;28;19916;-74
2022/04/21 05:38:21;;;;;;;;;;;;;;;8.84;63.68;101176.13;5041837;28;19948;-71
2022/04/21 05:40:47;;;;;;;;;;;;;;;8.85;63.60;101176.03;5027821;28;19939;-72
2022/04/21 05:43:15;;;;;;;;;;;;;;;8.89;63.65;101181.16;5023352;28;19920;-73
2022/04/21 05:45:41;;;;;;;;;;;;;;;8.94;63.77;101184.44;5042458;28;19917;-73
2022/04/21 05:48:07;;;;;;;;;;;;;;;8.94;63.88;101187.06;5041123;28;19929;-72
2022/04/21 05:50:32;;;;;;;;;;;;;;;8.94;63.89;101177.41;5036666;28;19928;-73
2022/04/21 05:53:01;;;;;;;;;;;;;;;8.95;63.81;101183.53;5041662;28;19930;-72
2022/04/21 05:55:26;;;;;;;;;;;;;;;8.97;63.48;101181.69;5042323;28;20518;-72
2022/04/21 05:57:52;;;;;;;;;;;;;;;9.04;63.47;101187.53;5043306;28;19925;-71
2022/04/21 06:00:17;;;;;;;;;;;;;;;9.10;63.37;101188.09;5023246;28;19947;-73
2022/04/21 06:02:42;;;;;;;;;;;;;;;9.15;63.04;101191.34;5040155;28;19952;-73
2022/04/21 06:05:08;;;;;;;;;;;;;;;9.18;63.41;101182.50;5021242;28;20339;-73
2022/04/21 06:07:33;;;;;;;;;;;;;;;9.22;63.34;101188.47;5015555;28;19932;-74
2022/04/21 06:09:58;;;;;;;;;;;;;;;9.22;63.17;101194.59;5038904;28;19923;-73
2022/04/21 06:12:25;;;;;;;;;;;;;;;9.18;63.36;101192.13;5038517;28;19926;-73
2022/04/21 06:14:51;;;;;;;;;;;;;;;9.15;63.50;101183.47;5037196;28;19928;-72
2022/04/21 06:17:16;;;;;;;;;;;;;;;9.18;63.12;101184.25;5041053;28;19955;-73
2022/04/21 06:19:41;;;;;;;;;;;;;;;9.22;63.21;101177.97;5039440;28;19940;-75
2022/04/21 06:22:07;;;;;;;;;;;;;;;9.28;63.13;101180.31;5038149;28;19916;-72
2022/04/21 06:24:32;;;;;;;;;;;;;;;9.29;63.29;101182.03;5038892;28;19924;-72
2022/04/21 06:26:58;;;;;;;;;;;;;;;9.28;63.04;101177.69;5043866;28;20237;-72
2022/04/21 06:29:23;;;;;;;;;;;;;;;9.27;63.16;101174.19;5039283;28;19925;-69
2022/04/21 06:31:48;;;;;;;;;;;;;;;9.29;63.02;101167.13;5036854;28;19921;-70
2022/04/21 06:34:13;;;;;;;;;;;;;;;9.30;63.11;101165.34;5036727;28;20262;-69
2022/04/21 06:36:39;;;;;;;;;;;;;;;9.25;63.17;101167.31;5034873;28;19931;-68
2022/04/21 06:39:04;;;;;;;;;;;;;;;9.25;63.21;101167.31;5038681;28;20341;-69
2022/04/21 06:41:29;;;;;;;;;;;;;;;9.25;63.38;101169.94;5037859;28;19924;-69
2022/04/21 06:49:22;;;;;;;;;;;;;;;9.23;63.51;101172.63;5025309;28;19928;-73
2022/04/21 06:51:47;;;;;;;;;;;;;;;9.22;63.68;101175.34;5016784;28;19944;-69
2022/04/21 06:54:13;;;;;;;;;;;;;;;9.23;63.54;101177.03;5038501;28;20206;-70
2022/04/21 06:56:38;;;;;;;;;;;;;;;9.24;63.71;101181.38;5037671;28;20014;-69
2022/04/21 06:59:05;;;;;;;;;;;;;;;9.21;63.67;101190.25;5039456;28;19921;-70
2022/04/21 07:01:31;;;;;;;;;;;;;;;9.20;63.75;101199.06;5040303;28;20423;-70
2022/04/21 07:03:56;;;;;;;;;;;;;;;9.23;63.39;101198.06;5037296;28;19968;-71
2022/04/21 07:06:21;;;;;;;;;;;;;;;9.29;63.37;101203.88;5040538;28;20340;-70
2022/04/21 07:08:47;;;;;;;;;;;;;;;9.36;63.65;101209.72;5040703;28;19924;-69
2022/04/21 07:11:12;;;;;;;;;;;;;;;9.39;63.25;101201.69;5040288;28;20429;-67
2022/04/21 07:13:37;;;;;;;;;;;;;;;9.41;63.23;101213.00;5039480;28;20320;-68
2022/04/21 07:16:03;;;;;;;;;;;;;;;9.42;63.11;101209.44;5038703;28;20335;-69
2022/04/21 07:18:28;;;;;;;;;;;;;;;9.45;62.85;101211.06;5041098;28;19917;-69
2022/04/21 07:20:53;;;;;;;;;;;;;;;9.48;63.19;101213.56;5040068;28;19924;-70
2022/04/21 07:23:18;;;;;;;;;;;;;;;9.51;62.90;101205.53;5038848;28;19921;-71
2022/04/21 07:25:44;;;;;;;;;;;;;;;9.58;62.69;101211.38;5040337;28;20281;-69
2022/04/21 07:28:09;;;;;;;;;;;;;;;9.62;62.67;101207.66;5038729;28;19928;-71
2022/04/21 07:30:35;;;;;;;;;;;;;;;9.65;62.55;101206.69;5035578;28;20012;-72
2022/04/21 07:33:00;;;;;;;;;;;;;;;9.73;62.88;101208.03;5039448;28;20034;-71
2022/04/21 07:35:25;;;;;;;;;;;;;;;9.86;62.55;101210.06;5031764;28;19927;-72
2022/04/21 07:37:53;;;;;;;;;;;;;;;9.95;62.25;101212.25;5037929;28;19951;-71
2022/04/21 07:40:20;;;;;;;;;;;;;;;10.03;62.01;101210.13;5036655;28;20273;-72
2022/04/21 07:42:46;;;;;;;;;;;;;;;10.07;62.02;101209.03;5035085;28;19931;-72
2022/04/21 07:45:11;;;;;;;;;;;;;;;10.11;62.05;101214.16;5037210;28;19921;-71
2022/04/21 07:47:36;;;;;;;;;;;;;;;10.16;61.69;101212.16;5037742;28;20262;-73
2022/04/21 07:50:02;;;;;;;;;;;;;;;10.21;61.71;101218.91;5036803;28;19924;-71
2022/04/21 07:55:14;;;;;;;;;;;;;;;10.40;61.62;101219.78;5038175;28;20015;-71
2022/04/21 07:57:40;;;;;;;;;;;;;;;10.46;61.45;101217.72;5038501;28;19912;-72
2022/04/21 08:00:06;;;;;;;;;;;;;;;10.51;61.29;101220.97;5036325;28;19920;-73
2022/04/21 08:02:32;;;;;;;;;;;;;;;10.58;61.28;101218.88;5037231;28;19928;-71
2022/04/21 08:04:57;;;;;;;;;;;;;;;10.70;61.25;101221.81;5036990;28;19917;-74
2022/04/21 08:07:23;;;;;;;;;;;;;;;10.83;61.06;101226.41;5039605;28;20623;-72
2022/04/21 08:09:48;;;;;;;;;;;;;;;11.00;60.76;101231.72;5018310;28;20415;-72
2022/04/21 08:12:14;;;;;;;;;;;;;;;11.10;60.58;101231.16;5041657;28;19956;-71
2022/04/21 08:14:39;;;;;;;;;;;;;;;11.22;60.34;101236.72;5040694;28;20297;-71
2022/04/21 08:17:05;;;;;;;;;;;;;;;11.31;60.10;101240.66;5041014;28;20020;-73
2022/04/21 08:19:31;;;;;;;;;;;;;;;11.37;59.91;101240.34;5040551;28;19921;-72
2022/04/21 08:21:56;;;;;;;;;;;;;;;11.41;59.74;101245.34;5039494;28;19924;-71
2022/04/21 08:32:33;;;;;;;;;;;;;;;11.69;59.44;101240.38;5038172;28;19958;-74
2022/04/21 08:34:59;;;;;;;;;;;;;;;11.76;59.38;101235.63;5037265;28;19913;-71
2022/04/21 08:37:24;;;;;;;;;;;;;;;11.83;59.15;101231.69;5040169;28;19924;-74
2022/04/21 08:39:50;;;;;;;;;;;;;;;11.89;59.21;101240.13;5037739;28;19917;-73
2022/04/21 08:42:15;;;;;;;;;;;;;;;11.96;59.16;101231.88;5037420;28;20404;-70
2022/04/21 08:44:43;;;;;;;;;;;;;;;12.06;58.97;101242.81;5036590;28;19913;-71
2022/04/21 08:47:09;;;;;;;;;;;;;;;12.11;58.78;101246.88;5038286;28;19939;-70
2022/04/21 08:49:36;;;;;;;;;;;;;;;12.15;58.78;101253.69;5037849;28;20023;-69
2022/04/21 08:52:01;;;;;;;;;;;;;;;12.17;58.53;101251.81;5025313;28;20010;-71
2022/04/21 08:54:27;;;;;;;;;;;;;;;12.23;58.52;101253.25;5038099;28;20050;-69
2022/04/21 08:56:53;;;;;;;;;;;;;;;12.31;58.54;101248.38;5039036;28;19949;-68
2022/04/21 08:59:19;;;;;;;;;;;;;;;12.39;58.56;101244.47;5039700;28;20381;-69
2022/04/21 09:01:45;;;;;;;;;;;;;;;12.43;58.32;101244.19;5038838;28;19916;-70
2022/04/21 09:04:10;;;;;;;;;;;;;;;12.47;58.50;101253.66;5040410;28;19939;-69
2022/04/21 09:06:38;;;;;;;;;;;;;;;12.55;58.47;101254.97;5038210;28;20031;-68
2022/04/21 09:09:17;;;;;;;;;;;;;;;12.62;58.32;101259.00;5037736;28;19925;-68
2022/04/21 09:11:44;;;;;;;;;;;;;;;12.69;58.33;101252.38;5036422;28;19921;-70
2022/04/21 09:14:13;;;;;;;;;;;;;;;12.75;58.25;101252.03;5038411;28;20003;-70
2022/04/21 09:16:39;;;;;;;;;;;;;;;12.83;58.26;101250.72;5038063;28;21566;-73
2022/04/21 09:19:04;;;;;;;;;;;;;;;12.89;58.15;101253.00;5038697;28;20363;-70
2022/04/21 09:21:37;;;;;;;;;;;;;;;12.95;58.03;101247.34;5036574;28;19928;-70
2022/04/21 09:24:17;;;;;;;;;;;;;;;13.03;58.19;101253.03;5036915;28;19916;-68
2022/04/21 09:26:44;;;;;;;;;;;;;;;13.12;58.06;101259.56;5038430;28;19917;-71
2022/04/21 09:29:13;;;;;;;;;;;;;;;13.19;57.76;101260.88;5029538;28;19955;-71
2022/04/21 09:31:40;;;;;;;;;;;;;;;13.27;57.48;101263.06;5036722;28;20016;-70
2022/04/21 09:34:05;;;;;;;;;;;;;;;13.33;57.53;101260.06;5035244;28;19924;-70
2022/04/21 09:36:31;;;;;;;;;;;;;;;13.36;57.42;101262.50;5035998;28;19923;-71
2022/04/21 09:38:58;;;;;;;;;;;;;;;13.40;57.16;101263.19;5038953;28;19920;-71
2022/04/21 09:41:27;;;;;;;;;;;;;;;13.43;57.12;101263.00;5034936;28;19947;-71
2022/04/21 09:43:53;;;;;;;;;;;;;;;13.48;57.16;101257.44;5033348;28;19917;-72
2022/04/21 09:46:22;;;;;;;;;;;;;;;13.50;57.10;101255.56;5035343;28;20004;-71
2022/04/21 09:48:56;;;;;;;;;;;;;;;13.52;57.25;101258.94;5040501;28;19994;-71
2022/04/21 09:51:25;;;;;;;;;;;;;;;13.54;57.25;101255.25;5038187;28;19913;-70
2022/04/21 09:54:00;;;;;;;;;;;;;;;13.60;57.14;101258.47;5035954;28;19920;-70
2022/04/21 09:56:29;;;;;;;;;;;;;;;13.64;56.78;101263.47;5038504;28;19971;-72
2022/04/21 09:58:55;;;;;;;;;;;;;;;13.65;56.97;101266.94;5036861;28;19920;-71
2022/04/21 10:01:21;;;;;;;;;;;;;;;13.67;56.84;101263.28;5038926;28;19919;-70
2022/04/21 10:03:47;;;;;;;;;;;;;;;13.71;56.63;101256.84;5033254;28;19930;-71
2022/04/21 10:06:13;;;;;;;;;;;;;;;13.77;56.80;101257.41;5038307;28;20273;-70
2022/04/21 10:08:40;;;;;;;;;;;;;;;13.86;56.74;101259.47;5037030;28;19928;-70
2022/04/21 10:11:06;;;;;;;;;;;;;;;13.95;56.55;101253.59;5036563;28;19917;-70
2022/04/21 10:13:32;;;;;;;;;;;;;;;14.01;56.24;101255.84;5039833;28;19920;-71
2022/04/21 10:15:58;;;;;;;;;;;;;;;14.05;56.36;101263.59;5042567;28;19913;-67
2022/04/21 10:18:24;;;;;;;;;;;;;;;14.09;56.41;101259.81;5040252;28;19917;-70
2022/04/21 10:20:52;;;;;;;;;;;;;;;14.10;56.34;101266.78;5039881;28;19917;-71
2022/04/21 10:23:18;;;;;;;;;;;;;;;14.10;56.20;101262.34;5039885;28;19974;-68
2022/04/21 10:25:43;;;;;;;;;;;;;;;14.09;56.15;101258.00;5040919;28;20514;-69
2022/04/21 10:28:28;;;;;;;;;;;;;;;14.08;56.48;101261.59;5039339;28;19932;-69
2022/04/21 10:30:56;;;;;;;;;;;;;;;14.07;56.03;101259.03;5042150;28;19924;-73
2022/04/21 10:33:41;;;;;;;;;;;;;;;14.06;56.27;101263.50;5040416;28;20393;-68
2022/04/21 10:36:06;;;;;;;;;;;;;;;14.05;56.20;101258.28;5038528;28;19990;-69
2022/04/21 10:38:32;;;;;;;;;;;;;;;14.05;56.33;101258.28;5041824;28;20361;-68
2022/04/21 10:41:00;;;;;;;;;;;;;;;14.05;56.40;101258.28;5042395;28;19920;-68
2022/04/21 10:43:45;;;;;;;;;;;;;;;14.07;56.34;101251.09;5038122;28;19923;-71
2022/04/21 10:46:18;;;;;;;;;;;;;;;14.10;56.37;101256.22;5040372;28;19916;-70
2022/04/21 10:48:44;;;;;;;;;;;;;;;14.13;56.20;101256.84;5040185;28;19916;-71
2022/04/21 10:51:10;;;;;;;;;;;;;;;14.16;56.18;101247.84;5039736;28;20391;-69
2022/04/21 10:59:29;;;;;;;;;;;;;;;14.33;56.32;101238.84;5040770;28;20352;-71
2022/04/21 11:01:55;;;;;;;;;;;;;;;14.41;56.10;101240.97;5040056;28;20629;-67
2022/04/21 11:04:21;;;;;;;;;;;;;;;14.47;55.76;101243.19;5039962;28;19917;-68
2022/04/21 11:06:48;;;;;;;;;;;;;;;14.51;55.46;101234.09;5036113;28;19928;-69
2022/04/21 11:09:32;;;;;;;;;;;;;;;14.54;55.74;101228.63;5042174;28;19920;-67
2022/04/21 11:11:57;;;;;;;;;;;;;;;14.59;55.25;101237.13;5041203;28;20265;-68
2022/04/21 11:14:29;;;;;;;;;;;;;;;14.58;55.42;101235.41;5041457;28;19944;-68
2022/04/21 11:16:55;;;;;;;;;;;;;;;14.61;55.35;101235.19;5039835;28;19928;-68
2022/04/21 11:19:32;;;;;;;;;;;;;;;14.60;55.26;101237.94;5039847;28;20265;-70
2022/04/21 11:21:59;;;;;;;;;;;;;;;14.64;55.11;101237.63;5038285;28;19917;-69
2022/04/21 11:24:25;;;;;;;;;;;;;;;14.70;54.98;101236.41;5040428;28;20424;-72
2022/04/21 11:26:57;;;;;;;;;;;;;;;14.77;55.17;101239.47;5039982;28;19916;-70
2022/04/21 11:29:23;;;;;;;;;;;;;;;14.85;55.01;101241.59;5039491;28;19925;-67
2022/04/21 11:31:53;;;;;;;;;;;;;;;14.92;54.63;101238.44;5038954;28;19944;-72
2022/04/21 11:34:22;;;;;;;;;;;;;;;15.01;54.73;101236.13;5035652;28;20301;-70
2022/04/21 11:36:48;;;;;;;;;;;;;;;15.09;54.59;101239.94;5038422;28;19974;-66
2022/04/21 11:39:14;;;;;;;;;;;;;;;15.18;54.41;101238.47;5040831;28;19920;-63
2022/04/21 11:41:48;;;;;;;;;;;;;;;15.28;54.25;101240.47;5040396;28;20312;-64
2022/04/21 11:44:23;;;;;;;;;;;;;;;15.37;54.21;101243.31;5039646;28;20344;-65
2022/04/21 11:46:48;;;;;;;;;;;;;;;15.42;54.03;101240.34;5040779;28;20014;-67
2022/04/21 11:49:14;;;;;;;;;;;;;;;15.46;53.88;101231.22;5038538;28;20349;-66
2022/04/21 11:51:40;;;;;;;;;;;;;;;15.52;53.84;101240.53;5037159;28;20029;-66
2022/04/21 11:54:07;;;;;;;;;;;;;;;15.59;53.69;101238.31;5038180;28;20392;-65
2022/04/21 11:56:32;;;;;;;;;;;;;;;15.65;53.56;101235.22;5039405;28;20000;-64
2022/04/21 11:59:03;;;;;;;;;;;;;;;15.71;53.48;101234.75;5039683;28;19920;-67
2022/04/21 12:06:57;;;;;;;;;;;;;;;15.73;53.01;101242.63;5037091;28;19927;-66
2022/04/21 12:09:24;;;;;;;;;;;;;;;15.72;53.00;101238.28;5035775;28;19929;-65
2022/04/21 12:11:51;;;;;;;;;;;;;;;15.72;53.00;101241.78;5036319;28;19924;-68
2022/04/21 12:14:16;;;;;;;;;;;;;;;15.74;52.96;101245.16;5036466;28;19921;-65
2022/04/21 12:16:45;;;;;;;;;;;;;;;15.74;52.89;101231.91;5039777;28;19978;-64
2022/04/21 12:19:46;;;;;;;;;;;;;;;15.75;52.74;101228.28;5032885;28;19955;-65
2022/04/21 12:22:13;;;;;;;;;;;;;;;15.74;52.77;101237.22;4963965;28;20367;-65
2022/04/21 12:24:38;;;;;;;;;;;;;;;15.75;52.70;101233.59;5018002;28;19928;-65
2022/04/21 12:27:20;;;;;;;;;;;;;;;15.77;52.74;101233.47;5040066;28;19917;-66
2022/04/21 12:29:51;;;;;;;;;;;;;;;15.80;52.74;101220.84;5035190;28;20313;-64
2022/04/21 12:32:18;;;;;;;;;;;;;;;15.84;52.64;101232.09;5036937;28;19912;-65
2022/04/21 12:34:43;;;;;;;;;;;;;;;15.84;52.41;101235.56;5034875;28;19966;-66
2022/04/21 12:37:09;;;;;;;;;;;;;;;15.89;52.45;101234.44;5037412;28;19920;-67
2022/04/21 12:39:35;;;;;;;;;;;;;;;15.91;52.45;101233.34;5037789;28;20241;-67
2022/04/21 12:42:03;;;;;;;;;;;;;;;15.96;52.37;101225.06;5039323;28;19967;-69
2022/04/21 12:44:28;;;;;;;;;;;;;;;15.99;52.31;101232.78;5038132;28;19917;-67
2022/04/21 12:47:00;;;;;;;;;;;;;;;16.01;52.12;101236.19;5041199;28;19943;-67
2022/04/21 12:49:46;;;;;;;;;;;;;;;16.04;52.05;101230.66;5027537;28;19966;-66
2022/04/21 12:52:11;;;;;;;;;;;;;;;16.02;51.83;101227.28;5040775;28;19920;-70
2022/04/21 12:54:37;;;;;;;;;;;;;;;16.01;51.94;101230.88;5038291;28;19921;-70
2022/04/21 12:57:06;;;;;;;;;;;;;;;16.00;51.80;101229.19;5033840;28;19921;-69
2022/04/21 12:59:31;;;;;;;;;;;;;;;16.00;51.84;101231.84;5034153;28;19978;-70
2022/04/21 13:01:57;;;;;;;;;;;;;;;16.02;51.74;101227.28;5035935;28;20618;-70
2022/04/21 13:04:22;;;;;;;;;;;;;;;16.05;51.69;101229.72;5033356;28;19916;-69
2022/04/21 13:06:48;;;;;;;;;;;;;;;16.07;51.64;101238.41;5037720;28;19917;-71
2022/04/21 13:09:13;;;;;;;;;;;;;;;16.11;51.68;101229.25;5021987;28;20023;-68
2022/04/21 13:11:38;;;;;;;;;;;;;;;16.14;51.57;101231.66;5040596;28;19919;-68
2022/04/21 13:14:04;;;;;;;;;;;;;;;16.20;51.46;101229.53;5036646;28;20432;-71
2022/04/21 13:16:30;;;;;;;;;;;;;;;16.25;51.30;101232.72;5038967;28;19916;-69
2022/04/21 13:18:56;;;;;;;;;;;;;;;16.28;51.23;101227.16;5035980;28;19928;-69
2022/04/21 13:24:05;;;;;;;;;;;;;;;16.35;50.98;101222.22;5037161;28;20338;-70
2022/04/21 13:26:30;;;;;;;;;;;;;;;16.38;50.98;101227.31;5018005;28;20448;-70
2022/04/21 13:28:57;;;;;;;;;;;;;;;16.40;50.91;101226.25;5034670;28;19936;-71
2022/04/21 13:34:06;;;;;;;;;;;;;;;16.52;50.64;101223.63;5033103;28;20293;-68
2022/04/21 13:36:31;;;;;;;;;;;;;;;16.59;50.56;101216.88;5039396;28;19921;-70